Fair Grove, Missouri
Current Conditions -  °F | °C
As of 8:52 AM on Thursday 30 Oct 2014 (Local Time) from KSGF Reporting Station
Clear Clear  
Wind Chill:   Ceiling: Unl
Heat Index:   Visibility: 10mi
Dew Point:   Wind: 13mph
Humidity: 66%   Direction: 170°S
Pressure: 30.09"   Gusts: NA
Location:  37.38°N, 93.15°W
Report Text: KSGF 301352Z 17011KT 10SM CLR 09/03 A3009 RMK AO2 SLP190 T00940033
Loading
Personal Weather Stations






























Interactive Weather Map
Tropical Storm Tracking
New forecast layout! Learn more

10-Day Weather Forecast

Advertisements
Track Severe Weather on mobile